createdAt,value
2022-12-26T00:00:53.589Z,2.50
2022-12-26T00:03:20.832Z,2.20
2022-12-26T00:05:47.961Z,2.93
2022-12-26T00:08:14.998Z,2.53
2022-12-26T00:10:41.697Z,2.90
2022-12-26T00:13:37.427Z,2.80
2022-12-26T00:15:55.204Z,3.53
2022-12-26T00:18:22.303Z,2.30
2022-12-26T00:20:49.352Z,2.67
2022-12-26T00:23:16.035Z,2.90
2022-12-26T00:25:42.723Z,2.23
2022-12-26T00:28:09.849Z,4.57
2022-12-26T00:30:38.307Z,4.07
2022-12-26T00:33:04.999Z,3.73
2022-12-26T00:35:32.105Z,2.40
2022-12-26T00:37:58.781Z,2.50
2022-12-26T00:40:25.884Z,2.47
2022-12-26T00:42:52.608Z,2.40
2022-12-26T00:45:19.863Z,2.50
2022-12-26T00:47:46.579Z,5.23
2022-12-26T00:50:15.806Z,2.63
2022-12-26T00:52:42.923Z,2.90
2022-12-26T00:55:10.319Z,3.67
2022-12-26T00:57:37.037Z,2.33
2022-12-26T01:00:05.049Z,2.80
2022-12-26T01:02:40.974Z,2.50
2022-12-26T01:05:10.608Z,2.20
2022-12-26T01:08:22.019Z,2.30
2022-12-26T01:10:25.870Z,2.73
2022-12-26T01:12:52.574Z,2.40
2022-12-26T01:15:19.937Z,2.47
2022-12-26T01:17:46.886Z,2.60
2022-12-26T01:20:13.981Z,2.50
2022-12-26T01:22:40.841Z,3.10
2022-12-26T01:25:08.239Z,3.23
2022-12-26T01:27:35.311Z,3.27
2022-12-26T01:30:02.371Z,3.10
2022-12-26T01:32:29.465Z,2.77
2022-12-26T01:34:56.567Z,2.40
2022-12-26T01:37:23.551Z,2.30
2022-12-26T01:39:50.726Z,2.60
2022-12-26T01:42:20.171Z,2.40
2022-12-26T01:45:04.692Z,2.53
2022-12-26T01:47:46.574Z,2.30
2022-12-26T01:50:44.656Z,2.17
2022-12-26T01:53:27.309Z,2.20
2022-12-26T01:56:01.379Z,2.20
2022-12-26T01:58:35.847Z,2.30
2022-12-26T02:01:05.891Z,2.00
2022-12-26T02:03:51.626Z,1.90
2022-12-26T02:06:18.385Z,2.27
2022-12-26T02:08:46.468Z,2.10
2022-12-26T02:11:27.671Z,2.00
2022-12-26T02:13:56.436Z,2.17
2022-12-26T02:16:25.635Z,2.20
2022-12-26T02:18:52.341Z,1.83
2022-12-26T02:22:07.256Z,1.70
2022-12-26T02:24:57.496Z,2.10
2022-12-26T02:27:36.083Z,1.60
2022-12-26T02:30:37.778Z,1.83
2022-12-26T02:33:16.599Z,1.70
2022-12-26T02:36:32.873Z,1.77
2022-12-26T02:39:44.932Z,1.90
2022-12-26T02:42:28.640Z,1.60
2022-12-26T02:45:20.976Z,1.90
2022-12-26T02:47:50.370Z,1.90
2022-12-26T02:51:03.515Z,2.00
2022-12-26T02:53:54.857Z,1.70
2022-12-26T02:56:55.790Z,1.73
2022-12-26T02:59:57.210Z,1.57
2022-12-26T03:02:57.702Z,1.73
2022-12-26T03:06:21.141Z,1.70
2022-12-26T03:09:28.226Z,1.80
2022-12-26T03:12:19.612Z,1.57
2022-12-26T03:14:55.218Z,1.67
2022-12-26T03:17:30.417Z,1.77
2022-12-26T03:20:26.348Z,1.60
2022-12-26T03:23:11.605Z,1.90
2022-12-26T03:26:16.555Z,1.80
2022-12-26T03:28:44.234Z,2.23
2022-12-26T03:31:13.094Z,1.90
2022-12-26T03:34:04.155Z,1.80
2022-12-26T03:37:07.866Z,2.03
2022-12-26T03:40:14.160Z,2.00
2022-12-26T03:43:33.415Z,2.00
2022-12-26T03:46:18.932Z,2.10
2022-12-26T03:49:23.457Z,2.23
2022-12-26T03:52:26.490Z,2.03
2022-12-26T03:55:48.682Z,2.00
2022-12-26T03:59:09.313Z,1.87
2022-12-26T04:01:58.462Z,1.77
2022-12-26T04:04:45.861Z,2.07
2022-12-26T04:07:56.444Z,1.57
2022-12-26T04:10:50.701Z,1.77
2022-12-26T04:13:42.752Z,1.90
2022-12-26T04:17:01.703Z,1.90
2022-12-26T04:19:28.750Z,2.30
2022-12-26T04:22:49.446Z,2.30
2022-12-26T04:25:49.700Z,2.30
2022-12-26T04:28:36.779Z,2.30
2022-12-26T04:31:31.718Z,1.90
2022-12-26T04:34:20.282Z,1.90
2022-12-26T04:37:17.429Z,2.20
2022-12-26T04:40:05.864Z,1.93
2022-12-26T04:42:52.730Z,2.00
2022-12-26T04:45:21.555Z,1.70
2022-12-26T04:48:09.146Z,2.00
2022-12-26T04:50:35.927Z,1.90
2022-12-26T04:53:02.686Z,2.10
2022-12-26T04:55:33.239Z,2.10
2022-12-26T04:58:00.441Z,1.93
2022-12-26T05:00:28.389Z,1.90
2022-12-26T05:03:18.752Z,1.70
2022-12-26T05:06:06.866Z,1.90
2022-12-26T05:08:56.375Z,2.07
2022-12-26T05:11:23.982Z,1.90
2022-12-26T05:13:55.659Z,2.00
2022-12-26T05:16:43.251Z,2.00
2022-12-26T05:19:35.853Z,1.80
2022-12-26T05:22:23.479Z,1.93
2022-12-26T05:25:09.429Z,2.17
2022-12-26T05:27:58.818Z,1.80
2022-12-26T05:30:25.910Z,2.10
2022-12-26T05:33:11.578Z,1.87
2022-12-26T05:35:39.562Z,1.80
2022-12-26T05:38:06.845Z,1.70
2022-12-26T05:40:33.914Z,1.40
2022-12-26T05:43:00.975Z,1.77
2022-12-26T05:45:28.129Z,1.77
2022-12-26T05:48:00.189Z,1.50
2022-12-26T05:50:27.496Z,1.37
2022-12-26T05:52:54.683Z,1.40
2022-12-26T05:55:21.506Z,1.30
2022-12-26T05:57:48.555Z,1.20
2022-12-26T06:00:15.764Z,1.50
2022-12-26T06:02:43.101Z,1.20
2022-12-26T06:05:10.449Z,1.40
2022-12-26T06:07:37.953Z,1.70
2022-12-26T06:10:06.395Z,1.13
2022-12-26T06:12:34.403Z,1.20
2022-12-26T06:15:01.209Z,1.27
2022-12-26T06:17:27.937Z,1.27
2022-12-26T06:19:55.004Z,1.30
2022-12-26T06:22:21.660Z,1.17
2022-12-26T06:24:48.722Z,1.30
2022-12-26T06:27:15.866Z,1.47
2022-12-26T06:29:42.566Z,1.40
2022-12-26T06:32:09.726Z,1.30
2022-12-26T06:34:36.404Z,1.23
2022-12-26T06:37:03.159Z,1.10
2022-12-26T06:39:30.297Z,1.30
2022-12-26T06:41:57.032Z,1.40
2022-12-26T06:44:24.183Z,1.13
2022-12-26T06:46:50.918Z,1.20
2022-12-26T06:49:17.675Z,1.30
2022-12-26T06:51:45.099Z,1.40
2022-12-26T06:54:11.845Z,1.30
2022-12-26T06:56:38.937Z,1.40
2022-12-26T06:59:06.563Z,1.40
2022-12-26T07:01:35.173Z,1.50
2022-12-26T07:04:02.423Z,1.40
2022-12-26T07:06:37.854Z,1.43
2022-12-26T07:09:09.863Z,1.80
2022-12-26T07:11:38.388Z,1.63
2022-12-26T07:14:05.684Z,1.40
2022-12-26T07:16:35.421Z,1.37
2022-12-26T07:19:02.183Z,1.67
2022-12-26T07:21:29.848Z,1.60
2022-12-26T07:23:58.700Z,1.40
2022-12-26T07:26:26.428Z,1.30
2022-12-26T07:28:54.932Z,1.13
2022-12-26T07:31:22.226Z,1.50
2022-12-26T07:33:50.129Z,1.20
2022-12-26T07:36:20.652Z,1.30
2022-12-26T07:38:48.236Z,1.30
2022-12-26T07:41:33.698Z,1.17
2022-12-26T07:44:00.914Z,1.37
2022-12-26T07:46:27.732Z,1.40
2022-12-26T07:48:54.907Z,1.13
2022-12-26T07:51:22.285Z,1.20
2022-12-26T07:53:49.373Z,1.33
2022-12-26T07:56:16.485Z,1.23
2022-12-26T07:58:43.634Z,1.20
2022-12-26T08:01:10.620Z,1.33
2022-12-26T08:03:38.549Z,1.20
2022-12-26T08:06:05.926Z,1.20
2022-12-26T08:08:33.028Z,1.60
2022-12-26T08:11:01.194Z,1.30
2022-12-26T08:13:29.216Z,1.63
2022-12-26T08:15:56.494Z,1.30
2022-12-26T08:18:23.659Z,1.30
2022-12-26T08:20:50.374Z,1.30
2022-12-26T08:23:17.726Z,1.63
2022-12-26T08:25:44.554Z,1.80
2022-12-26T08:28:11.234Z,1.60
2022-12-26T08:30:41.025Z,1.90
2022-12-26T08:33:08.848Z,1.90
2022-12-26T08:35:36.280Z,1.57
2022-12-26T08:38:03.204Z,1.80
2022-12-26T08:40:42.464Z,1.47
2022-12-26T08:43:31.055Z,1.80
2022-12-26T08:45:59.669Z,1.73
2022-12-26T08:48:26.940Z,1.83
2022-12-26T08:50:57.753Z,1.90
2022-12-26T08:53:25.056Z,1.87
2022-12-26T08:55:52.469Z,1.90
2022-12-26T08:58:19.581Z,1.80
2022-12-26T09:00:51.752Z,1.70
2022-12-26T09:03:22.236Z,1.70
2022-12-26T09:05:49.119Z,1.80
2022-12-26T09:08:16.215Z,1.90
2022-12-26T09:10:42.922Z,1.70
2022-12-26T09:13:10.027Z,2.10
2022-12-26T09:15:37.159Z,1.90
2022-12-26T09:18:04.304Z,1.97
2022-12-26T09:20:32.530Z,1.90
2022-12-26T09:22:59.256Z,1.80
2022-12-26T09:25:27.168Z,2.00
2022-12-26T09:27:58.996Z,2.10
2022-12-26T09:30:26.490Z,2.00
2022-12-26T09:32:53.971Z,3.27
2022-12-26T09:35:21.203Z,2.83
2022-12-26T09:37:48.270Z,3.20
2022-12-26T09:40:21.468Z,3.27
2022-12-26T09:42:48.567Z,4.53
2022-12-26T09:45:17.308Z,2.10
2022-12-26T09:48:02.975Z,3.90
2022-12-26T09:50:31.308Z,1.80
2022-12-26T09:53:04.122Z,2.37
2022-12-26T09:55:47.325Z,6.53
2022-12-26T09:58:20.230Z,2.00
2022-12-26T10:00:52.931Z,1.50
2022-12-26T10:03:20.386Z,1.60
2022-12-26T10:06:07.756Z,1.60
2022-12-26T10:08:53.358Z,1.40
2022-12-26T10:11:39.215Z,1.53
2022-12-26T10:14:34.016Z,2.30
2022-12-26T10:17:04.046Z,1.63
2022-12-26T10:19:40.080Z,1.40
2022-12-26T10:22:17.060Z,1.50
2022-12-26T10:24:45.040Z,2.07
2022-12-26T10:27:16.918Z,2.00
2022-12-26T10:29:52.107Z,2.00
2022-12-26T10:32:30.836Z,2.00
2022-12-26T10:34:59.017Z,1.83
2022-12-26T10:37:29.168Z,1.70
2022-12-26T10:40:01.734Z,1.70
2022-12-26T10:42:37.205Z,1.60
2022-12-26T10:45:24.967Z,1.60
2022-12-26T10:47:52.477Z,1.30
2022-12-26T10:50:27.183Z,1.53
2022-12-26T10:52:54.993Z,1.80
2022-12-26T10:55:31.935Z,1.70
2022-12-26T10:58:16.179Z,1.90
2022-12-26T11:00:42.922Z,2.20
2022-12-26T11:03:18.480Z,2.00
2022-12-26T11:06:07.095Z,1.70
2022-12-26T11:08:43.317Z,1.80
2022-12-26T11:11:10.777Z,1.80
2022-12-26T11:13:46.779Z,1.63
2022-12-26T11:16:14.470Z,1.70
2022-12-26T11:18:48.391Z,1.60
2022-12-26T11:21:18.263Z,1.83
2022-12-26T11:23:49.731Z,1.70
2022-12-26T11:26:22.297Z,1.70
2022-12-26T11:29:11.109Z,1.60
2022-12-26T11:31:41.345Z,1.47
2022-12-26T11:34:17.449Z,1.80
2022-12-26T11:36:49.689Z,1.60
2022-12-26T11:39:30.149Z,1.40
2022-12-26T11:41:58.253Z,1.47
2022-12-26T11:44:33.258Z,1.40
2022-12-26T11:47:13.048Z,2.27
2022-12-26T11:49:45.711Z,1.60
2022-12-26T11:52:34.037Z,1.80
2022-12-26T11:55:01.519Z,1.40
2022-12-26T11:57:31.608Z,1.97
2022-12-26T12:00:16.208Z,4.20
2022-12-26T12:02:43.402Z,2.30
2022-12-26T12:05:26.454Z,1.43
2022-12-26T12:07:56.131Z,1.90
2022-12-26T12:10:43.018Z,1.50
2022-12-26T12:13:38.563Z,1.50
2022-12-26T12:16:23.141Z,1.60
2022-12-26T12:19:01.808Z,1.40
2022-12-26T12:21:39.112Z,1.30
2022-12-26T12:24:24.715Z,1.30
2022-12-26T12:27:27.420Z,1.20
2022-12-26T12:30:15.887Z,1.40
2022-12-26T12:32:55.197Z,1.60
2022-12-26T12:35:50.280Z,1.70
2022-12-26T12:38:49.231Z,2.60
2022-12-26T12:41:44.633Z,2.17
2022-12-26T12:44:46.678Z,6.03
2022-12-26T12:47:20.807Z,1.90
2022-12-26T12:50:12.514Z,2.03
2022-12-26T12:52:54.354Z,1.70
2022-12-26T12:55:41.510Z,1.67
2022-12-26T12:58:15.936Z,3.60
2022-12-26T13:00:47.448Z,2.07
2022-12-26T13:03:32.299Z,2.20
2022-12-26T13:06:11.206Z,1.80
2022-12-26T13:08:45.859Z,1.93
2022-12-26T13:11:24.660Z,1.83
2022-12-26T13:13:57.959Z,1.90
2022-12-26T13:16:28.819Z,1.50
2022-12-26T13:19:07.271Z,2.30
2022-12-26T13:21:39.868Z,1.93
2022-12-26T13:24:26.025Z,1.80
2022-12-26T13:26:58.041Z,1.50
2022-12-26T13:29:38.641Z,1.80
2022-12-26T13:32:22.013Z,1.70
2022-12-26T13:34:50.044Z,1.60
2022-12-26T13:37:35.179Z,1.80
2022-12-26T13:40:15.255Z,1.73
2022-12-26T13:43:32.726Z,1.67
2022-12-26T13:45:59.863Z,1.63
2022-12-26T13:48:32.169Z,1.70
2022-12-26T13:51:04.542Z,2.00
2022-12-26T13:53:33.298Z,1.57
2022-12-26T13:56:18.162Z,1.27
2022-12-26T13:58:53.103Z,1.37
2022-12-26T14:02:04.433Z,1.20
2022-12-26T14:04:52.518Z,1.47
2022-12-26T14:07:41.217Z,1.40
2022-12-26T14:10:46.660Z,1.33
2022-12-26T14:13:50.707Z,1.67
2022-12-26T14:16:37.887Z,1.80
2022-12-26T14:19:38.006Z,2.97
2022-12-26T14:22:07.415Z,4.40
2022-12-26T14:24:57.728Z,2.50
2022-12-26T14:27:33.814Z,4.40
2022-12-26T14:30:24.241Z,3.20
2022-12-26T14:33:28.914Z,2.37
2022-12-26T14:36:18.453Z,1.87
2022-12-26T14:38:45.585Z,1.80
2022-12-26T14:41:34.399Z,2.00
2022-12-26T14:44:33.395Z,2.03
2022-12-26T14:47:02.311Z,3.80
2022-12-26T14:49:35.742Z,3.87
2022-12-26T14:52:24.474Z,3.80
2022-12-26T14:54:55.570Z,3.93
2022-12-26T14:57:47.822Z,3.30
2022-12-26T15:00:24.105Z,2.70
2022-12-26T15:03:01.522Z,3.07
2022-12-26T15:05:41.469Z,2.17
2022-12-26T15:08:30.913Z,2.43
2022-12-26T15:11:27.636Z,2.30
2022-12-26T15:13:57.037Z,2.23
2022-12-26T15:16:55.169Z,2.30
2022-12-26T15:19:46.769Z,1.90
2022-12-26T15:22:13.412Z,2.50
2022-12-26T15:25:17.987Z,2.30
2022-12-26T15:27:48.528Z,2.60
2022-12-26T15:30:22.044Z,2.63
2022-12-26T15:33:16.974Z,2.00
2022-12-26T15:35:53.466Z,1.70
2022-12-26T15:38:37.316Z,1.67
2022-12-26T15:41:18.043Z,1.70
2022-12-26T15:43:45.106Z,1.70
2022-12-26T15:46:22.273Z,1.90
2022-12-26T15:49:17.082Z,2.90
2022-12-26T15:51:43.727Z,4.63
2022-12-26T15:54:16.505Z,2.60
2022-12-26T15:57:13.562Z,2.20
2022-12-26T15:59:52.273Z,1.80
2022-12-26T16:02:47.391Z,1.90
2022-12-26T16:05:31.477Z,2.23
2022-12-26T16:08:29.154Z,2.07
2022-12-26T16:11:42.906Z,1.70
2022-12-26T16:14:35.874Z,2.33
2022-12-26T16:17:14.490Z,1.90
2022-12-26T16:19:47.143Z,2.07
2022-12-26T16:22:44.159Z,6.07
2022-12-26T16:25:14.939Z,5.20
2022-12-26T16:27:42.863Z,7.40
2022-12-26T16:30:22.570Z,7.10
2022-12-26T16:32:51.125Z,5.37
2022-12-26T16:35:39.912Z,4.77
2022-12-26T16:38:11.365Z,4.23
2022-12-26T16:40:50.739Z,3.73
2022-12-26T16:43:29.775Z,3.47
2022-12-26T16:46:01.268Z,2.97
2022-12-26T16:48:30.738Z,2.77
2022-12-26T16:51:02.875Z,2.70
2022-12-26T16:53:35.447Z,3.70
2022-12-26T16:56:31.420Z,3.40
2022-12-26T16:59:17.671Z,3.00
2022-12-26T17:01:57.035Z,3.30
2022-12-26T17:04:32.614Z,3.60
2022-12-26T17:07:06.387Z,4.20
2022-12-26T17:09:41.558Z,4.80
2022-12-26T17:12:27.707Z,7.23
2022-12-26T17:14:56.867Z,7.00
2022-12-26T17:17:23.906Z,8.40
2022-12-26T17:19:54.111Z,6.53
2022-12-26T17:22:21.597Z,5.30
2022-12-26T17:24:50.987Z,5.00
2022-12-26T17:27:18.142Z,5.83
2022-12-26T17:29:49.638Z,5.10
2022-12-26T17:32:39.658Z,5.13
2022-12-26T17:35:18.022Z,4.80
2022-12-26T17:37:45.712Z,4.47
2022-12-26T17:40:15.832Z,3.87
2022-12-26T17:42:47.907Z,4.20
2022-12-26T17:45:19.965Z,4.60
2022-12-26T17:47:46.637Z,4.30
2022-12-26T17:50:14.480Z,4.10
2022-12-26T17:52:41.383Z,4.00
2022-12-26T17:55:25.555Z,3.80
2022-12-26T17:57:53.034Z,3.03
2022-12-26T18:00:24.853Z,3.17
2022-12-26T18:02:52.335Z,2.53
2022-12-26T18:05:20.794Z,3.20
2022-12-26T18:07:50.716Z,3.00
2022-12-26T18:10:31.131Z,2.63
2022-12-26T18:12:58.547Z,2.67
2022-12-26T18:15:27.545Z,3.53
2022-12-26T18:17:54.664Z,3.00
2022-12-26T18:20:23.993Z,2.40
2022-12-26T18:22:52.265Z,2.30
2022-12-26T18:25:23.817Z,2.77
2022-12-26T18:27:51.717Z,3.23
2022-12-26T18:30:20.476Z,3.10
2022-12-26T18:32:48.810Z,4.43
2022-12-26T18:35:16.388Z,6.80
2022-12-26T18:37:45.197Z,4.20
2022-12-26T18:40:42.111Z,5.00
2022-12-26T18:43:09.340Z,2.73
2022-12-26T18:45:38.131Z,3.13
2022-12-26T18:48:05.986Z,2.50
2022-12-26T18:50:33.407Z,2.73
2022-12-26T18:53:00.890Z,2.97
2022-12-26T18:55:28.512Z,2.90
2022-12-26T18:57:55.580Z,2.20
2022-12-26T19:00:23.334Z,2.70
2022-12-26T19:02:52.041Z,2.40
2022-12-26T19:05:28.692Z,2.57
2022-12-26T19:07:55.527Z,2.10
2022-12-26T19:10:23.708Z,2.93
2022-12-26T19:12:51.094Z,2.30
2022-12-26T19:15:18.257Z,2.27
2022-12-26T19:17:45.424Z,2.60
2022-12-26T19:20:25.699Z,2.73
2022-12-26T19:22:53.596Z,3.20
2022-12-26T19:25:21.973Z,3.07
2022-12-26T19:27:49.651Z,2.70
2022-12-26T19:30:17.581Z,2.73
2022-12-26T19:32:45.233Z,2.60
2022-12-26T19:35:13.239Z,2.30
2022-12-26T19:37:40.455Z,2.33
2022-12-26T19:40:08.452Z,2.70
2022-12-26T19:42:37.335Z,2.30
2022-12-26T19:45:05.913Z,2.43
2022-12-26T19:47:34.364Z,2.60
2022-12-26T19:50:01.744Z,2.83
2022-12-26T19:52:28.855Z,2.73
2022-12-26T19:54:55.957Z,5.73
2022-12-26T19:57:23.432Z,5.90
2022-12-26T19:59:50.880Z,7.83
2022-12-26T20:02:18.310Z,3.50
2022-12-26T20:04:45.603Z,4.77
2022-12-26T20:07:12.674Z,3.47
2022-12-26T20:09:39.830Z,3.00
2022-12-26T20:12:06.766Z,6.27
2022-12-26T20:14:33.983Z,4.70
2022-12-26T20:17:06.245Z,3.70
2022-12-26T20:19:34.878Z,4.10
2022-12-26T20:22:01.750Z,4.40
2022-12-26T20:24:28.461Z,3.80
2022-12-26T20:26:55.156Z,5.70
2022-12-26T20:29:22.420Z,3.30
2022-12-26T20:31:49.519Z,3.73
2022-12-26T20:34:16.668Z,4.03
2022-12-26T20:36:43.453Z,4.30
2022-12-26T20:39:19.146Z,4.33
2022-12-26T20:41:46.326Z,6.53
2022-12-26T20:44:14.252Z,4.03
2022-12-26T20:46:41.739Z,6.07
2022-12-26T20:49:09.759Z,5.87
2022-12-26T20:51:39.176Z,3.37
2022-12-26T20:54:07.799Z,2.97
2022-12-26T20:56:35.434Z,4.73
2022-12-26T20:59:03.179Z,4.97
2022-12-26T21:01:30.402Z,5.90
2022-12-26T21:03:57.852Z,4.17
2022-12-26T21:06:26.265Z,6.90
2022-12-26T21:08:54.185Z,5.30
2022-12-26T21:11:24.295Z,2.90
2022-12-26T21:13:52.171Z,3.53
2022-12-26T21:16:25.692Z,3.10
2022-12-26T21:18:53.006Z,3.20
2022-12-26T21:21:22.903Z,5.93
2022-12-26T21:23:50.167Z,5.27
2022-12-26T21:26:16.846Z,4.20
2022-12-26T21:28:43.517Z,5.03
2022-12-26T21:31:11.390Z,4.90
2022-12-26T21:33:44.218Z,4.13
2022-12-26T21:36:12.837Z,4.20
2022-12-26T21:38:40.244Z,2.90
2022-12-26T21:41:10.863Z,3.03
2022-12-26T21:43:37.936Z,2.60
2022-12-26T21:46:13.454Z,3.13
2022-12-26T21:48:46.884Z,3.63
2022-12-26T21:51:17.877Z,3.90
2022-12-26T21:53:45.490Z,4.10
2022-12-26T21:56:14.146Z,3.23
2022-12-26T21:59:00.363Z,3.40
2022-12-26T22:01:28.145Z,3.40
2022-12-26T22:04:13.717Z,3.97
2022-12-26T22:06:41.658Z,3.33
2022-12-26T22:09:09.312Z,3.57
2022-12-26T22:11:55.490Z,3.20
2022-12-26T22:14:22.911Z,2.87
2022-12-26T22:16:53.894Z,2.83
2022-12-26T22:19:21.063Z,3.73
2022-12-26T22:21:47.704Z,3.13
2022-12-26T22:24:14.982Z,2.97
2022-12-26T22:26:42.331Z,3.27
2022-12-26T22:29:09.768Z,3.60
2022-12-26T22:31:37.589Z,3.00
2022-12-26T22:34:06.071Z,3.13
2022-12-26T22:36:33.484Z,3.63
2022-12-26T22:39:00.937Z,3.53
2022-12-26T22:41:28.368Z,3.57
2022-12-26T22:43:55.085Z,3.10
2022-12-26T22:46:22.194Z,2.90
2022-12-26T22:48:48.971Z,2.60
2022-12-26T22:51:20.220Z,3.00
2022-12-26T22:53:47.331Z,3.47
2022-12-26T22:56:14.624Z,3.20
2022-12-26T22:58:41.559Z,2.93
2022-12-26T23:01:17.553Z,2.57
2022-12-26T23:03:44.744Z,2.57
2022-12-26T23:06:22.785Z,2.60
2022-12-26T23:08:51.010Z,3.00
2022-12-26T23:11:18.190Z,3.07
2022-12-26T23:13:45.436Z,2.90
2022-12-26T23:16:39.277Z,2.63
2022-12-26T23:19:31.322Z,3.20
2022-12-26T23:22:01.170Z,2.80
2022-12-26T23:24:29.944Z,2.70
2022-12-26T23:27:22.118Z,2.40
2022-12-26T23:30:08.472Z,2.83
2022-12-26T23:32:35.837Z,2.70
2022-12-26T23:35:03.254Z,2.73
2022-12-26T23:37:30.349Z,2.80
2022-12-26T23:39:57.430Z,3.13
2022-12-26T23:42:24.491Z,3.00
2022-12-26T23:44:51.179Z,2.97
2022-12-26T23:47:18.276Z,2.80
2022-12-26T23:49:45.342Z,2.97
2022-12-26T23:52:12.407Z,2.80
2022-12-26T23:54:39.473Z,3.07
2022-12-26T23:57:06.583Z,2.37
2022-12-26T23:59:33.829Z,3.13
